sensor_id;sensor_type;location;lat;lon;timestamp;P1;durP1;ratioP1;P2;durP2;ratioP2
43413;SDS011;29013;49.676;8.606;2023-08-12T00:04:38;1.73;;;0.98;;
43413;SDS011;29013;49.676;8.606;2023-08-12T00:10:05;1.35;;;1.12;;
43413;SDS011;29013;49.676;8.606;2023-08-12T00:15:28;1.03;;;0.93;;
43413;SDS011;29013;49.676;8.606;2023-08-12T00:20:46;1.76;;;1.21;;
43413;SDS011;29013;49.676;8.606;2023-08-12T00:26:04;1.32;;;0.99;;
43413;SDS011;29013;49.676;8.606;2023-08-12T00:31:47;1.57;;;1.18;;
43413;SDS011;29013;49.676;8.606;2023-08-12T00:37:11;1.42;;;1.02;;
43413;SDS011;29013;49.676;8.606;2023-08-12T00:42:33;2.49;;;1.05;;
43413;SDS011;29013;49.676;8.606;2023-08-12T00:47:55;1.49;;;1.04;;
43413;SDS011;29013;49.676;8.606;2023-08-12T00:53:16;1.59;;;1.05;;
43413;SDS011;29013;49.676;8.606;2023-08-12T00:58:45;1.28;;;1.05;;
43413;SDS011;29013;49.676;8.606;2023-08-12T01:04:10;1.71;;;1.12;;
43413;SDS011;29013;49.676;8.606;2023-08-12T01:09:30;0.98;;;0.92;;
43413;SDS011;29013;49.676;8.606;2023-08-12T01:14:58;1.6;;;1.01;;
43413;SDS011;29013;49.676;8.606;2023-08-12T01:20:20;1.83;;;1.05;;
43413;SDS011;29013;49.676;8.606;2023-08-12T01:25:44;1.77;;;1.2;;
43413;SDS011;29013;49.676;8.606;2023-08-12T01:31:11;3.0;;;1.28;;
43413;SDS011;29013;49.676;8.606;2023-08-12T01:36:35;1.15;;;0.98;;
43413;SDS011;29013;49.676;8.606;2023-08-12T01:41:54;1.07;;;0.99;;
43413;SDS011;29013;49.676;8.606;2023-08-12T01:47:18;1.78;;;1.22;;
43413;SDS011;29013;49.676;8.606;2023-08-12T01:52:40;1.66;;;1.36;;
43413;SDS011;29013;49.676;8.606;2023-08-12T01:58:05;2.2;;;1.31;;
43413;SDS011;29013;49.676;8.606;2023-08-12T02:03:27;1.85;;;1.41;;
43413;SDS011;29013;49.676;8.606;2023-08-12T02:09:06;2.14;;;1.3;;
43413;SDS011;29013;49.676;8.606;2023-08-12T02:14:29;1.39;;;1.25;;
43413;SDS011;29013;49.676;8.606;2023-08-12T02:19:53;2.3;;;1.21;;
43413;SDS011;29013;49.676;8.606;2023-08-12T02:25:16;2.76;;;1.42;;
43413;SDS011;29013;49.676;8.606;2023-08-12T02:30:43;1.34;;;1.31;;
43413;SDS011;29013;49.676;8.606;2023-08-12T02:36:23;1.62;;;1.45;;
43413;SDS011;29013;49.676;8.606;2023-08-12T02:41:47;1.55;;;1.49;;
43413;SDS011;29013;49.676;8.606;2023-08-12T02:47:28;2.12;;;1.62;;
43413;SDS011;29013;49.676;8.606;2023-08-12T02:52:47;2.91;;;1.43;;
43413;SDS011;29013;49.676;8.606;2023-08-12T02:58:12;2.7;;;1.75;;
43413;SDS011;29013;49.676;8.606;2023-08-12T03:03:37;1.8;;;1.37;;
43413;SDS011;29013;49.676;8.606;2023-08-12T03:09:21;3.18;;;1.73;;
43413;SDS011;29013;49.676;8.606;2023-08-12T03:14:42;1.84;;;1.75;;
43413;SDS011;29013;49.676;8.606;2023-08-12T03:20:07;5.65;;;1.94;;
43413;SDS011;29013;49.676;8.606;2023-08-12T03:25:28;1.88;;;1.69;;
43413;SDS011;29013;49.676;8.606;2023-08-12T03:30:53;2.81;;;1.69;;
43413;SDS011;29013;49.676;8.606;2023-08-12T03:36:15;2.59;;;1.69;;
43413;SDS011;29013;49.676;8.606;2023-08-12T03:41:38;2.67;;;1.87;;
43413;SDS011;29013;49.676;8.606;2023-08-12T03:47:03;2.51;;;1.76;;
43413;SDS011;29013;49.676;8.606;2023-08-12T03:52:28;3.85;;;1.94;;
43413;SDS011;29013;49.676;8.606;2023-08-12T03:58:18;3.07;;;1.99;;
43413;SDS011;29013;49.676;8.606;2023-08-12T04:03:42;1.63;;;1.32;;
43413;SDS011;29013;49.676;8.606;2023-08-12T04:09:20;2.54;;;1.67;;
43413;SDS011;29013;49.676;8.606;2023-08-12T04:14:42;1.7;;;1.23;;
43413;SDS011;29013;49.676;8.606;2023-08-12T04:20:02;3.3;;;1.99;;
43413;SDS011;29013;49.676;8.606;2023-08-12T04:25:28;3.33;;;1.85;;
43413;SDS011;29013;49.676;8.606;2023-08-12T04:30:51;1.97;;;1.56;;
43413;SDS011;29013;49.676;8.606;2023-08-12T04:36:10;4.13;;;1.79;;
43413;SDS011;29013;49.676;8.606;2023-08-12T04:41:35;2.63;;;1.93;;
43413;SDS011;29013;49.676;8.606;2023-08-12T04:46:58;2.44;;;1.74;;
43413;SDS011;29013;49.676;8.606;2023-08-12T04:52:18;1.91;;;1.57;;
43413;SDS011;29013;49.676;8.606;2023-08-12T04:57:43;1.87;;;1.54;;
43413;SDS011;29013;49.676;8.606;2023-08-12T05:03:07;1.76;;;1.6;;
43413;SDS011;29013;49.676;8.606;2023-08-12T05:08:32;2.28;;;1.51;;
43413;SDS011;29013;49.676;8.606;2023-08-12T05:14:10;2.65;;;1.39;;
43413;SDS011;29013;49.676;8.606;2023-08-12T05:19:38;2.46;;;1.59;;
43413;SDS011;29013;49.676;8.606;2023-08-12T05:25:02;2.76;;;1.55;;
43413;SDS011;29013;49.676;8.606;2023-08-12T05:30:28;1.94;;;1.8;;
43413;SDS011;29013;49.676;8.606;2023-08-12T05:35:51;1.42;;;1.39;;
43413;SDS011;29013;49.676;8.606;2023-08-12T05:41:16;1.5;;;1.43;;
43413;SDS011;29013;49.676;8.606;2023-08-12T05:46:42;2.68;;;1.54;;
43413;SDS011;29013;49.676;8.606;2023-08-12T05:52:06;2.0;;;1.63;;
43413;SDS011;29013;49.676;8.606;2023-08-12T05:57:42;3.53;;;1.79;;
43413;SDS011;29013;49.676;8.606;2023-08-12T06:03:20;2.13;;;1.65;;
43413;SDS011;29013;49.676;8.606;2023-08-12T06:08:42;3.5;;;1.42;;
43413;SDS011;29013;49.676;8.606;2023-08-12T06:14:07;2.19;;;1.61;;
43413;SDS011;29013;49.676;8.606;2023-08-12T06:19:31;2.38;;;1.53;;
43413;SDS011;29013;49.676;8.606;2023-08-12T06:24:53;2.24;;;1.48;;
43413;SDS011;29013;49.676;8.606;2023-08-12T06:30:18;1.73;;;1.41;;
43413;SDS011;29013;49.676;8.606;2023-08-12T06:35:57;2.51;;;1.58;;
43413;SDS011;29013;49.676;8.606;2023-08-12T06:41:20;2.09;;;1.39;;
43413;SDS011;29013;49.676;8.606;2023-08-12T06:46:57;1.96;;;1.61;;
43413;SDS011;29013;49.676;8.606;2023-08-12T06:52:19;2.69;;;1.86;;
43413;SDS011;29013;49.676;8.606;2023-08-12T06:57:40;2.23;;;1.71;;
43413;SDS011;29013;49.676;8.606;2023-08-12T07:03:06;3.0;;;1.6;;
43413;SDS011;29013;49.676;8.606;2023-08-12T07:20:10;2.52;;;1.65;;
43413;SDS011;29013;49.676;8.606;2023-08-12T07:25:31;2.37;;;1.63;;
43413;SDS011;29013;49.676;8.606;2023-08-12T07:30:57;2.18;;;1.58;;
43413;SDS011;29013;49.676;8.606;2023-08-12T07:36:20;2.39;;;1.97;;
43413;SDS011;29013;49.676;8.606;2023-08-12T07:41:42;1.95;;;1.5;;
43413;SDS011;29013;49.676;8.606;2023-08-12T07:47:26;2.01;;;1.74;;
43413;SDS011;29013;49.676;8.606;2023-08-12T07:52:50;4.24;;;1.84;;
43413;SDS011;29013;49.676;8.606;2023-08-12T07:58:17;4.42;;;1.76;;
43413;SDS011;29013;49.676;8.606;2023-08-12T08:03:42;2.47;;;2.19;;
43413;SDS011;29013;49.676;8.606;2023-08-12T08:09:02;2.56;;;1.8;;
43413;SDS011;29013;49.676;8.606;2023-08-12T08:14:27;2.59;;;2.02;;
43413;SDS011;29013;49.676;8.606;2023-08-12T08:19:51;2.41;;;1.77;;
43413;SDS011;29013;49.676;8.606;2023-08-12T08:25:11;2.1;;;1.62;;
43413;SDS011;29013;49.676;8.606;2023-08-12T08:30:36;3.76;;;1.84;;
43413;SDS011;29013;49.676;8.606;2023-08-12T08:36:00;1.6;;;1.21;;
43413;SDS011;29013;49.676;8.606;2023-08-12T08:41:24;2.53;;;1.83;;
43413;SDS011;29013;49.676;8.606;2023-08-12T08:46:44;1.28;;;1.25;;
43413;SDS011;29013;49.676;8.606;2023-08-12T08:52:07;2.27;;;1.74;;
43413;SDS011;29013;49.676;8.606;2023-08-12T08:57:27;2.53;;;1.77;;
43413;SDS011;29013;49.676;8.606;2023-08-12T09:02:52;1.77;;;1.33;;
43413;SDS011;29013;49.676;8.606;2023-08-12T09:08:33;2.74;;;2.03;;
43413;SDS011;29013;49.676;8.606;2023-08-12T09:13:56;2.66;;;1.65;;
43413;SDS011;29013;49.676;8.606;2023-08-12T09:19:46;2.72;;;2.02;;
43413;SDS011;29013;49.676;8.606;2023-08-12T09:25:09;2.56;;;1.27;;
43413;SDS011;29013;49.676;8.606;2023-08-12T09:30:30;2.35;;;1.47;;
43413;SDS011;29013;49.676;8.606;2023-08-12T09:35:54;2.54;;;1.51;;
43413;SDS011;29013;49.676;8.606;2023-08-12T09:41:20;2.2;;;1.47;;
43413;SDS011;29013;49.676;8.606;2023-08-12T09:46:45;1.69;;;1.49;;
43413;SDS011;29013;49.676;8.606;2023-08-12T09:52:13;2.74;;;1.46;;
43413;SDS011;29013;49.676;8.606;2023-08-12T09:57:39;2.16;;;1.72;;
43413;SDS011;29013;49.676;8.606;2023-08-12T10:03:04;2.22;;;1.45;;
43413;SDS011;29013;49.676;8.606;2023-08-12T10:08:29;3.71;;;2.09;;
43413;SDS011;29013;49.676;8.606;2023-08-12T10:13:53;2.34;;;1.8;;
43413;SDS011;29013;49.676;8.606;2023-08-12T10:19:17;2.92;;;2.13;;
43413;SDS011;29013;49.676;8.606;2023-08-12T10:24:36;3.69;;;2.13;;
43413;SDS011;29013;49.676;8.606;2023-08-12T10:30:00;4.26;;;2.12;;
43413;SDS011;29013;49.676;8.606;2023-08-12T10:35:30;1.72;;;1.15;;
43413;SDS011;29013;49.676;8.606;2023-08-12T10:47:25;4.33;;;1.53;;
43413;SDS011;29013;49.676;8.606;2023-08-12T10:52:45;1.76;;;1.3;;
43413;SDS011;29013;49.676;8.606;2023-08-12T10:58:09;1.39;;;1.35;;
43413;SDS011;29013;49.676;8.606;2023-08-12T11:03:34;2.19;;;1.55;;
43413;SDS011;29013;49.676;8.606;2023-08-12T11:08:57;2.42;;;1.64;;
43413;SDS011;29013;49.676;8.606;2023-08-12T11:14:21;1.81;;;1.21;;
43413;SDS011;29013;49.676;8.606;2023-08-12T11:19:40;3.28;;;1.19;;
43413;SDS011;29013;49.676;8.606;2023-08-12T11:24:58;3.7;;;1.17;;
43413;SDS011;29013;49.676;8.606;2023-08-12T11:30:22;5.41;;;1.54;;
43413;SDS011;29013;49.676;8.606;2023-08-12T11:42:09;1.77;;;1.08;;
43413;SDS011;29013;49.676;8.606;2023-08-12T11:47:36;2.61;;;1.1;;
43413;SDS011;29013;49.676;8.606;2023-08-12T12:12:51;1.92;;;0.93;;
43413;SDS011;29013;49.676;8.606;2023-08-12T12:32:57;0.91;;;0.66;;
43413;SDS011;29013;49.676;8.606;2023-08-12T13:03:08;1.4;;;0.42;;
43413;SDS011;29013;49.676;8.606;2023-08-12T13:23:15;0.64;;;0.46;;
43413;SDS011;29013;49.676;8.606;2023-08-12T13:53:05;0.4;;;0.33;;
43413;SDS011;29013;49.676;8.606;2023-08-12T13:58:36;0.58;;;0.32;;
43413;SDS011;29013;49.676;8.606;2023-08-12T14:04:05;0.47;;;0.4;;
43413;SDS011;29013;49.676;8.606;2023-08-12T14:09:38;0.32;;;0.28;;
43413;SDS011;29013;49.676;8.606;2023-08-12T14:15:10;0.87;;;0.53;;
43413;SDS011;29013;49.676;8.606;2023-08-12T16:13:03;0.95;;;1.04;;
43413;SDS011;29013;49.676;8.606;2023-08-12T16:19:10;1.96;;;0.96;;
43413;SDS011;29013;49.676;8.606;2023-08-12T16:42:39;1.18;;;1.03;;
43413;SDS011;29013;49.676;8.606;2023-08-12T16:47:58;2.18;;;1.15;;
43413;SDS011;29013;49.676;8.606;2023-08-12T16:53:26;2.83;;;1.47;;
43413;SDS011;29013;49.676;8.606;2023-08-12T16:58:55;2.49;;;1.44;;
43413;SDS011;29013;49.676;8.606;2023-08-12T17:04:39;1.67;;;1.38;;
43413;SDS011;29013;49.676;8.606;2023-08-12T17:10:29;1.37;;;1.15;;
43413;SDS011;29013;49.676;8.606;2023-08-12T17:16:38;1.84;;;1.41;;
43413;SDS011;29013;49.676;8.606;2023-08-12T17:22:15;2.69;;;1.49;;
43413;SDS011;29013;49.676;8.606;2023-08-12T17:27:35;1.19;;;1.13;;
43413;SDS011;29013;49.676;8.606;2023-08-12T17:32:59;1.53;;;1.29;;
43413;SDS011;29013;49.676;8.606;2023-08-12T17:38:27;3.05;;;1.92;;
43413;SDS011;29013;49.676;8.606;2023-08-12T17:57:42;2.68;;;1.25;;
43413;SDS011;29013;49.676;8.606;2023-08-12T18:15:09;2.17;;;1.3;;
43413;SDS011;29013;49.676;8.606;2023-08-12T18:20:30;1.87;;;1.59;;
43413;SDS011;29013;49.676;8.606;2023-08-12T18:26:29;1.9;;;1.19;;
43413;SDS011;29013;49.676;8.606;2023-08-12T18:31:58;1.42;;;1.13;;
43413;SDS011;29013;49.676;8.606;2023-08-12T18:37:22;3.12;;;1.08;;
43413;SDS011;29013;49.676;8.606;2023-08-12T18:42:44;1.2;;;0.88;;
43413;SDS011;29013;49.676;8.606;2023-08-12T18:48:53;1.17;;;0.88;;
43413;SDS011;29013;49.676;8.606;2023-08-12T18:54:15;0.95;;;0.89;;
43413;SDS011;29013;49.676;8.606;2023-08-12T18:59:40;1.71;;;0.96;;
43413;SDS011;29013;49.676;8.606;2023-08-12T19:05:03;1.35;;;0.97;;
43413;SDS011;29013;49.676;8.606;2023-08-12T19:10:25;1.11;;;0.99;;
43413;SDS011;29013;49.676;8.606;2023-08-12T19:15:47;1.87;;;1.0;;
43413;SDS011;29013;49.676;8.606;2023-08-12T19:21:09;2.52;;;1.27;;
43413;SDS011;29013;49.676;8.606;2023-08-12T19:26:30;1.5;;;1.03;;
43413;SDS011;29013;49.676;8.606;2023-08-12T19:31:51;1.89;;;0.95;;
43413;SDS011;29013;49.676;8.606;2023-08-12T19:37:11;4.05;;;1.11;;
43413;SDS011;29013;49.676;8.606;2023-08-12T19:42:30;1.61;;;0.81;;
43413;SDS011;29013;49.676;8.606;2023-08-12T19:47:52;1.02;;;0.71;;
43413;SDS011;29013;49.676;8.606;2023-08-12T19:53:15;1.63;;;0.7;;
43413;SDS011;29013;49.676;8.606;2023-08-12T19:58:39;0.69;;;0.58;;
43413;SDS011;29013;49.676;8.606;2023-08-12T20:03:59;1.15;;;0.7;;
43413;SDS011;29013;49.676;8.606;2023-08-12T20:09:22;1.02;;;0.66;;
43413;SDS011;29013;49.676;8.606;2023-08-12T20:15:55;1.72;;;0.79;;
43413;SDS011;29013;49.676;8.606;2023-08-12T20:21:18;2.35;;;0.82;;
43413;SDS011;29013;49.676;8.606;2023-08-12T20:26:43;1.48;;;1.0;;
43413;SDS011;29013;49.676;8.606;2023-08-12T20:32:06;4.15;;;1.17;;
43413;SDS011;29013;49.676;8.606;2023-08-12T20:37:30;3.19;;;1.28;;
43413;SDS011;29013;49.676;8.606;2023-08-12T20:42:53;2.53;;;1.12;;
43413;SDS011;29013;49.676;8.606;2023-08-12T20:48:11;1.99;;;1.19;;
43413;SDS011;29013;49.676;8.606;2023-08-12T20:53:33;2.45;;;1.2;;
43413;SDS011;29013;49.676;8.606;2023-08-12T20:58:58;1.91;;;1.27;;
43413;SDS011;29013;49.676;8.606;2023-08-12T21:04:21;1.83;;;1.12;;
43413;SDS011;29013;49.676;8.606;2023-08-12T21:09:43;2.5;;;1.21;;
43413;SDS011;29013;49.676;8.606;2023-08-12T21:15:06;1.9;;;1.21;;
43413;SDS011;29013;49.676;8.606;2023-08-12T21:20:26;3.05;;;1.08;;
43413;SDS011;29013;49.676;8.606;2023-08-12T21:25:49;1.64;;;1.16;;
43413;SDS011;29013;49.676;8.606;2023-08-12T21:31:09;1.8;;;1.25;;
43413;SDS011;29013;49.676;8.606;2023-08-12T21:36:32;1.22;;;1.07;;
43413;SDS011;29013;49.676;8.606;2023-08-12T21:41:57;2.32;;;1.42;;
43413;SDS011;29013;49.676;8.606;2023-08-12T21:47:20;1.62;;;1.19;;
43413;SDS011;29013;49.676;8.606;2023-08-12T21:52:43;1.51;;;0.99;;
43413;SDS011;29013;49.676;8.606;2023-08-12T21:58:05;1.49;;;1.23;;
43413;SDS011;29013;49.676;8.606;2023-08-12T22:03:30;4.73;;;1.23;;
43413;SDS011;29013;49.676;8.606;2023-08-12T22:08:54;3.09;;;1.31;;
43413;SDS011;29013;49.676;8.606;2023-08-12T22:14:17;3.25;;;1.37;;
43413;SDS011;29013;49.676;8.606;2023-08-12T22:19:40;2.71;;;1.23;;
43413;SDS011;29013;49.676;8.606;2023-08-12T22:25:07;1.97;;;1.3;;
43413;SDS011;29013;49.676;8.606;2023-08-12T22:30:30;2.14;;;1.33;;
43413;SDS011;29013;49.676;8.606;2023-08-12T22:35:52;3.26;;;1.09;;
43413;SDS011;29013;49.676;8.606;2023-08-12T22:41:15;2.67;;;1.07;;
43413;SDS011;29013;49.676;8.606;2023-08-12T22:46:55;2.48;;;1.16;;
43413;SDS011;29013;49.676;8.606;2023-08-12T22:52:18;2.45;;;1.04;;
43413;SDS011;29013;49.676;8.606;2023-08-12T22:57:42;1.9;;;1.12;;
43413;SDS011;29013;49.676;8.606;2023-08-12T23:03:05;1.5;;;1.21;;
43413;SDS011;29013;49.676;8.606;2023-08-12T23:08:29;1.02;;;0.88;;
43413;SDS011;29013;49.676;8.606;2023-08-12T23:13:54;1.66;;;1.22;;
43413;SDS011;29013;49.676;8.606;2023-08-12T23:19:20;1.46;;;0.88;;
43413;SDS011;29013;49.676;8.606;2023-08-12T23:24:46;3.93;;;1.25;;
43413;SDS011;29013;49.676;8.606;2023-08-12T23:30:11;1.32;;;1.09;;
43413;SDS011;29013;49.676;8.606;2023-08-12T23:35:31;4.05;;;1.42;;
43413;SDS011;29013;49.676;8.606;2023-08-12T23:41:11;2.07;;;1.09;;
43413;SDS011;29013;49.676;8.606;2023-08-12T23:46:30;1.36;;;0.96;;
43413;SDS011;29013;49.676;8.606;2023-08-12T23:51:49;2.23;;;0.96;;
43413;SDS011;29013;49.676;8.606;2023-08-12T23:57:09;2.04;;;0.87;;
